Airfield :
LOGIN :

Register | Disclaimer

   EN    FR    IT 

 










Legend :    VFR   Marginal VFR   IFR   Intensive IFR   Very Intensive IFR
Visi :
Ceiling :
>= 8 km
>= 3000ft
5 to 8 km
1000 to 3000 ft
1500m to 5 km
500 to 1000 ft
800 to 1500m
200 to 500 ft
< 800m
< 200 ft
Symbols :   Thunderstorms  Fog  Heavy snow  Heavy precipitations  Wind > 20 kt
SIGMETs :     Misc.  Thunderstorms  Icing  Turbulence  Mountain Waves  Volcanic Ashes






- Airport Elevation : 3368 ft


LSGC - Les Eplatures

CURRENT METAR :
  • 280820Z 24016G26KT 6000 -RA BKN005 05/05 Q1010 R/SNOCLO

EXPIRED METARs :
  • 280750Z 24013G24KT 9999 -DZ OVC005 05/05 Q1010 R/SNOCLO
  • 280720Z 22009KT 190V260 5000 -RA OVC004 04/04 Q1010 R/SNOCLO
  • 280650Z AUTO 22007KT 190V260 5000 RA BKN003 BKN006 03/03 Q1010
  • 280620Z AUTO 22004KT 1900 RA BKN004 BKN007 03/03 Q1010 RERASN
  • 280550Z AUTO 25002KT 4500 RASN BKN006 02/02 Q1010 RERA

TAF TAF LSGC
Valid from the 28 at 09:00 until the 28 at 18:00 UTC


280825Z 2809/2818 23015G25KT 9999 -RA OVC005
TEMPO 2809/2815 3000 +RA
TEMPO 2809/2815 23020G35KT



MET'MAP, your aeronautical weather chart ! - Copyright ORBIFLY December 2007 - Disclaimer

ORBIFLY MET'MAP TEAM :

Programming & Development : Alexandra Zaïnal
Concept & original design : Baudouin d'Aumeries
Assistance for programming : Marc-Olivier Méhu
Technical & hardware support : Manuel Goepfert

Contact : metmap@orbifly.com




SOURCES & CREDITS :

   NOAA